createdAt,value
2024-02-02T00:01:23.605Z,99670.60
2024-02-02T00:03:57.078Z,99667.00
2024-02-02T00:06:30.530Z,99668.40
2024-02-02T00:09:07.266Z,99671.80
2024-02-02T00:11:41.668Z,99676.60
2024-02-02T00:14:15.633Z,99683.00
2024-02-02T00:16:49.299Z,99686.80
2024-02-02T00:19:22.801Z,99684.60
2024-02-02T00:21:56.289Z,99685.00
2024-02-02T00:24:29.731Z,99680.40
2024-02-02T00:27:03.532Z,99680.00
2024-02-02T00:29:37.644Z,99683.40
2024-02-02T00:32:11.234Z,99691.40
2024-02-02T00:34:44.724Z,99687.00
2024-02-02T00:37:18.523Z,99699.60
2024-02-02T00:39:51.877Z,99696.60
2024-02-02T00:42:25.481Z,99701.20
2024-02-02T00:45:01.093Z,99701.00
2024-02-02T00:47:34.655Z,99696.80
2024-02-02T00:50:12.063Z,99690.80
2024-02-02T00:52:45.559Z,99687.80
2024-02-02T00:55:19.232Z,99689.80
2024-02-02T00:57:52.601Z,99690.00
2024-02-02T01:00:25.942Z,99696.20
2024-02-02T01:02:59.351Z,99697.80
2024-02-02T01:05:34.123Z,99691.80
2024-02-02T01:08:08.278Z,99690.40
2024-02-02T01:10:41.710Z,99689.80
2024-02-02T01:13:15.174Z,99696.60
2024-02-02T01:15:48.841Z,99699.60
2024-02-02T01:18:22.279Z,99704.00
2024-02-02T01:20:56.108Z,99700.80
2024-02-02T01:23:29.547Z,99694.20
2024-02-02T01:26:05.438Z,99693.60
2024-02-02T01:28:38.729Z,99689.40
2024-02-02T01:31:12.279Z,99696.20
2024-02-02T01:33:46.549Z,99696.40
2024-02-02T01:36:20.144Z,99698.20
2024-02-02T01:38:55.655Z,99715.00
2024-02-02T01:41:29.819Z,99707.80
2024-02-02T01:44:03.115Z,99710.80
2024-02-02T01:46:36.638Z,99712.20
2024-02-02T01:49:10.029Z,99716.40
2024-02-02T01:51:43.778Z,99718.80
2024-02-02T01:54:17.969Z,99717.00
2024-02-02T01:56:51.751Z,99720.80
2024-02-02T01:59:26.577Z,99727.40
2024-02-02T02:02:00.793Z,99726.00
2024-02-02T02:04:34.259Z,99724.80
2024-02-02T02:07:07.785Z,99725.80
2024-02-02T02:09:42.323Z,99726.00
2024-02-02T02:12:15.730Z,99723.80
2024-02-02T02:14:49.196Z,99723.40
2024-02-02T02:17:22.508Z,99723.80
2024-02-02T02:19:55.833Z,99729.00
2024-02-02T02:22:29.180Z,99735.60
2024-02-02T02:25:03.014Z,99735.40
2024-02-02T02:27:36.518Z,99730.20
2024-02-02T02:30:12.762Z,99733.00
2024-02-02T02:32:46.142Z,99733.00
2024-02-02T02:35:19.540Z,99734.80
2024-02-02T02:37:53.147Z,99735.60
2024-02-02T02:40:26.530Z,99735.20
2024-02-02T02:42:59.823Z,99735.40
2024-02-02T02:45:33.239Z,99738.80
2024-02-02T02:48:07.936Z,99748.80
2024-02-02T02:50:41.219Z,99743.00
2024-02-02T02:53:15.058Z,99739.80
2024-02-02T02:55:48.337Z,99737.80
2024-02-02T02:58:21.813Z,99735.80
2024-02-02T03:00:57.333Z,99732.20
2024-02-02T03:03:30.653Z,99736.80
2024-02-02T03:06:03.988Z,99741.60
2024-02-02T03:08:37.308Z,99744.60
2024-02-02T03:11:10.902Z,99750.60
2024-02-02T03:13:44.289Z,99741.40
2024-02-02T03:16:17.767Z,99748.00
2024-02-02T03:18:51.221Z,99755.80
2024-02-02T03:21:24.736Z,99751.80
2024-02-02T03:23:57.950Z,99746.60
2024-02-02T03:26:31.302Z,99744.60
2024-02-02T03:29:04.719Z,99744.40
2024-02-02T03:31:38.442Z,99745.40
2024-02-02T03:34:11.848Z,99750.80
2024-02-02T03:36:45.204Z,99757.60
2024-02-02T03:39:18.825Z,99754.60
2024-02-02T03:41:53.194Z,99760.20
2024-02-02T03:44:26.445Z,99762.00
2024-02-02T03:46:59.774Z,99773.80
2024-02-02T03:49:35.338Z,99775.60
2024-02-02T03:52:09.433Z,99773.80
2024-02-02T03:54:42.824Z,99781.40
2024-02-02T03:57:16.149Z,99781.40
2024-02-02T03:59:49.739Z,99777.80
2024-02-02T04:02:23.134Z,99784.40
2024-02-02T04:04:56.417Z,99787.00
2024-02-02T04:07:29.633Z,99787.20
2024-02-02T04:10:02.942Z,99788.80
2024-02-02T04:12:36.370Z,99784.40
2024-02-02T04:15:11.897Z,99784.40
2024-02-02T04:17:45.364Z,99793.80
2024-02-02T04:20:19.180Z,99793.60
2024-02-02T04:22:52.396Z,99802.40
2024-02-02T04:25:25.622Z,99800.40
2024-02-02T04:27:59.180Z,99806.00
2024-02-02T04:30:34.158Z,99806.20
2024-02-02T04:33:08.763Z,99805.20
2024-02-02T04:35:42.334Z,99815.40
2024-02-02T04:38:18.473Z,99817.80
2024-02-02T04:40:52.060Z,99813.40
2024-02-02T04:43:25.437Z,99815.40
2024-02-02T04:45:58.662Z,99828.60
2024-02-02T04:48:32.158Z,99827.40
2024-02-02T04:51:05.749Z,99825.40
2024-02-02T04:53:39.058Z,99830.20
2024-02-02T04:56:12.408Z,99830.60
2024-02-02T04:58:45.573Z,99835.20
2024-02-02T05:01:18.811Z,99833.60
2024-02-02T05:03:52.174Z,99838.40
2024-02-02T05:06:25.370Z,99838.60
2024-02-02T05:08:59.344Z,99840.60
2024-02-02T05:11:32.997Z,99848.40
2024-02-02T05:14:06.243Z,99848.60
2024-02-02T05:16:39.795Z,99848.40
2024-02-02T05:19:13.456Z,99853.20
2024-02-02T05:21:46.800Z,99856.00
2024-02-02T05:24:33.187Z,99854.20
2024-02-02T05:27:13.907Z,99857.20
2024-02-02T05:29:49.993Z,99854.60
2024-02-02T05:32:24.187Z,99847.20
2024-02-02T05:34:57.541Z,99850.00
2024-02-02T05:37:31.277Z,99839.20
2024-02-02T05:40:05.593Z,99838.00
2024-02-02T05:42:39.013Z,99833.80
2024-02-02T05:45:13.664Z,99833.60
2024-02-02T05:47:46.972Z,99840.00
2024-02-02T05:50:20.430Z,99836.60
2024-02-02T05:52:53.793Z,99839.80
2024-02-02T05:55:27.090Z,99833.60
2024-02-02T05:58:00.425Z,99830.00
2024-02-02T06:00:33.915Z,99832.40
2024-02-02T06:03:07.492Z,99839.60
2024-02-02T06:05:42.380Z,99841.00
2024-02-02T06:08:16.869Z,99847.60
2024-02-02T06:10:50.231Z,99845.20
2024-02-02T06:13:23.559Z,99847.80
2024-02-02T06:15:56.900Z,99847.40
2024-02-02T06:18:30.275Z,99847.40
2024-02-02T06:21:04.562Z,99853.40
2024-02-02T06:23:37.792Z,99855.80
2024-02-02T06:26:11.246Z,99859.20
2024-02-02T06:28:44.588Z,99861.20
2024-02-02T06:31:17.987Z,99865.60
2024-02-02T06:33:51.250Z,99863.60
2024-02-02T06:36:28.258Z,99865.40
2024-02-02T06:39:02.182Z,99868.60
2024-02-02T06:41:35.621Z,99868.80
2024-02-02T06:44:09.177Z,99871.60
2024-02-02T06:46:42.476Z,99865.40
2024-02-02T06:49:15.970Z,99858.60
2024-02-02T06:51:49.590Z,99867.40
2024-02-02T06:54:22.963Z,99864.60
2024-02-02T06:56:56.196Z,99862.20
2024-02-02T06:59:29.849Z,99866.60
2024-02-02T07:02:13.036Z,99866.40
2024-02-02T07:04:46.297Z,99859.20
2024-02-02T07:07:20.768Z,99859.80
2024-02-02T07:09:57.817Z,99861.00
2024-02-02T07:13:00.745Z,99861.20
2024-02-02T07:15:42.817Z,99864.40
2024-02-02T07:18:38.287Z,99870.40
2024-02-02T07:21:14.941Z,99874.20
2024-02-02T07:23:51.112Z,99871.00
2024-02-02T07:26:32.295Z,99872.80
2024-02-02T07:29:30.333Z,99879.60
2024-02-02T07:32:09.016Z,99878.40
2024-02-02T07:34:49.410Z,99873.40
2024-02-02T07:37:46.493Z,99873.20
2024-02-02T07:43:22.015Z,99878.20
2024-02-02T07:45:55.659Z,99873.20
2024-02-02T07:48:29.209Z,99880.40
2024-02-02T07:51:02.806Z,99886.60
2024-02-02T07:53:36.961Z,99884.60
2024-02-02T07:56:11.309Z,99885.20
2024-02-02T07:58:44.933Z,99879.40
2024-02-02T08:01:18.839Z,99881.00
2024-02-02T08:03:53.365Z,99888.20
2024-02-02T08:06:27.786Z,99883.00
2024-02-02T08:09:01.247Z,99894.80
2024-02-02T08:11:37.029Z,99900.80
2024-02-02T08:14:10.510Z,99899.20
2024-02-02T08:16:43.795Z,99900.00
2024-02-02T08:19:17.289Z,99902.80
2024-02-02T08:21:51.123Z,99902.00
2024-02-02T08:24:24.455Z,99895.80
2024-02-02T08:26:58.231Z,99892.80
2024-02-02T08:29:32.162Z,99899.40
2024-02-02T08:32:07.017Z,99901.40
2024-02-02T08:34:40.389Z,99896.80
2024-02-02T08:37:15.632Z,99908.80
2024-02-02T08:39:49.667Z,99907.20
2024-02-02T08:42:25.728Z,99903.00
2024-02-02T08:45:02.078Z,99911.40
2024-02-02T08:47:37.461Z,99906.80
2024-02-02T08:50:12.928Z,99911.20
2024-02-02T08:52:46.209Z,99908.80
2024-02-02T08:55:45.446Z,99910.80
2024-02-02T08:58:28.756Z,99921.40
2024-02-02T09:01:04.179Z,99921.00
2024-02-02T09:03:46.877Z,99920.20
2024-02-02T09:06:46.058Z,99913.80
2024-02-02T09:09:22.836Z,99913.60
2024-02-02T09:11:57.370Z,99912.00
2024-02-02T09:14:32.344Z,99906.80
2024-02-02T09:17:08.485Z,99904.00
2024-02-02T09:19:47.069Z,99905.00
2024-02-02T09:22:22.069Z,99903.20
2024-02-02T09:24:56.388Z,99901.20
2024-02-02T09:27:37.507Z,99908.80
2024-02-02T09:30:24.369Z,99903.20
2024-02-02T09:32:57.798Z,99906.40
2024-02-02T09:35:56.727Z,99909.80
2024-02-02T09:38:31.678Z,99907.00
2024-02-02T09:41:33.388Z,99901.80
2024-02-02T09:44:28.241Z,99894.40
2024-02-02T09:47:20.404Z,99897.60
2024-02-02T09:50:09.537Z,99900.20
2024-02-02T09:53:20.164Z,99903.20
2024-02-02T09:56:03.807Z,99900.40
2024-02-02T09:58:48.337Z,99900.80
2024-02-02T10:01:44.514Z,99889.80
2024-02-02T10:04:47.164Z,99887.20
2024-02-02T10:07:40.565Z,99886.80
2024-02-02T10:10:41.537Z,99881.20
2024-02-02T10:13:35.309Z,99883.60
2024-02-02T10:16:32.687Z,99879.40
2024-02-02T10:19:40.024Z,99883.80
2024-02-02T10:22:40.077Z,99882.20
2024-02-02T10:25:48.260Z,99873.40
2024-02-02T10:28:41.435Z,99865.20
2024-02-02T10:31:39.585Z,99867.60
2024-02-02T10:34:33.855Z,99869.80
2024-02-02T10:37:31.887Z,99864.00
2024-02-02T10:40:32.507Z,99866.60
2024-02-02T10:43:38.946Z,99861.20
2024-02-02T10:46:29.841Z,99856.40
2024-02-02T10:49:31.603Z,99845.80
2024-02-02T10:52:22.443Z,99841.20
2024-02-02T10:55:21.617Z,99835.60
2024-02-02T10:58:06.387Z,99831.40
2024-02-02T11:00:53.481Z,99837.00
2024-02-02T11:03:36.147Z,99832.60
2024-02-02T11:06:31.175Z,99818.40
2024-02-02T11:09:18.942Z,99812.20
2024-02-02T11:12:10.318Z,99811.80
2024-02-02T11:14:56.621Z,99802.00
2024-02-02T11:17:37.011Z,99798.20
2024-02-02T11:20:30.075Z,99792.60
2024-02-02T11:23:15.944Z,99794.00
2024-02-02T11:26:01.393Z,99786.40
2024-02-02T11:28:51.273Z,99772.60
2024-02-02T11:31:41.174Z,99771.20
2024-02-02T11:34:26.825Z,99769.40
2024-02-02T11:37:18.857Z,99769.40
2024-02-02T11:40:06.175Z,99757.40
2024-02-02T11:42:42.176Z,99766.00
2024-02-02T11:45:24.576Z,99755.60
2024-02-02T11:48:06.218Z,99754.80
2024-02-02T11:50:45.934Z,99761.00
2024-02-02T11:53:42.504Z,99747.20
2024-02-02T11:56:31.545Z,99735.60
2024-02-02T11:59:13.648Z,99736.00
2024-02-02T12:02:09.487Z,99725.80
2024-02-02T12:04:48.001Z,99729.80
2024-02-02T12:07:38.484Z,99727.20
2024-02-02T12:10:18.982Z,99731.20
2024-02-02T12:13:01.521Z,99730.40
2024-02-02T12:15:35.609Z,99725.60
2024-02-02T12:18:10.581Z,99722.40
2024-02-02T12:20:45.405Z,99715.40
2024-02-02T12:23:19.298Z,99718.80
2024-02-02T12:25:52.729Z,99716.80
2024-02-02T12:28:26.147Z,99713.60
2024-02-02T12:30:59.368Z,99707.60
2024-02-02T12:33:32.796Z,99695.00
2024-02-02T12:36:10.278Z,99686.00
2024-02-02T12:38:47.434Z,99683.60
2024-02-02T12:41:20.711Z,99679.20
2024-02-02T12:43:54.493Z,99679.80
2024-02-02T12:46:28.484Z,99689.00
2024-02-02T12:49:02.004Z,99679.80
2024-02-02T12:51:35.508Z,99670.00
2024-02-02T12:54:10.859Z,99670.00
2024-02-02T12:56:44.295Z,99662.00
2024-02-02T12:59:19.887Z,99653.60
2024-02-02T13:01:56.119Z,99662.60
2024-02-02T13:04:30.711Z,99656.40
2024-02-02T13:07:05.179Z,99653.40
2024-02-02T13:09:41.802Z,99649.80
2024-02-02T13:12:29.840Z,99655.20
2024-02-02T13:15:15.416Z,99652.80
2024-02-02T13:18:07.277Z,99645.60
2024-02-02T13:20:46.093Z,99642.40
2024-02-02T13:23:28.743Z,99635.00
2024-02-02T13:26:07.896Z,99633.20
2024-02-02T13:28:54.381Z,99643.60
2024-02-02T13:31:37.052Z,99639.80
2024-02-02T13:34:15.811Z,99634.00
2024-02-02T13:36:49.418Z,99639.20
2024-02-02T13:39:27.284Z,99632.40
2024-02-02T13:42:06.345Z,99625.00
2024-02-02T13:44:39.765Z,99619.00
2024-02-02T13:47:21.955Z,99610.60
2024-02-02T13:50:17.929Z,99616.40
2024-02-02T13:52:53.735Z,99615.20
2024-02-02T13:55:32.084Z,99606.00
2024-02-02T13:58:06.587Z,99605.60
2024-02-02T14:00:40.075Z,99603.20
2024-02-02T14:03:21.844Z,99604.40
2024-02-02T14:05:58.449Z,99598.20
2024-02-02T14:08:45.848Z,99599.20
2024-02-02T14:11:28.796Z,99598.40
2024-02-02T14:14:04.767Z,99590.60
2024-02-02T14:16:38.432Z,99589.40
2024-02-02T14:19:13.081Z,99591.00
2024-02-02T14:21:46.824Z,99587.60
2024-02-02T14:24:21.039Z,99581.20
2024-02-02T14:26:56.080Z,99575.60
2024-02-02T14:29:40.297Z,99576.60
2024-02-02T14:32:15.768Z,99569.80
2024-02-02T14:34:49.762Z,99566.80
2024-02-02T14:37:23.495Z,99574.60
2024-02-02T14:40:01.156Z,99574.60
2024-02-02T14:42:34.723Z,99561.80
2024-02-02T14:45:10.161Z,99568.60
2024-02-02T14:47:44.835Z,99569.00
2024-02-02T14:50:18.883Z,99559.00
2024-02-02T14:52:53.184Z,99558.00
2024-02-02T14:55:27.014Z,99548.60
2024-02-02T14:58:02.133Z,99531.80
2024-02-02T15:00:42.549Z,99527.60
2024-02-02T15:03:16.478Z,99520.40
2024-02-02T15:05:51.492Z,99512.80
2024-02-02T15:08:26.203Z,99505.40
2024-02-02T15:10:59.860Z,99500.40
2024-02-02T15:13:33.348Z,99488.20
2024-02-02T15:16:11.324Z,99496.80
2024-02-02T15:18:47.504Z,99498.00
2024-02-02T15:21:20.915Z,99490.60
2024-02-02T15:23:54.525Z,99494.60
2024-02-02T15:26:27.951Z,99505.20
2024-02-02T15:29:01.283Z,99502.60
2024-02-02T15:31:34.885Z,99501.80
2024-02-02T15:34:09.506Z,99506.00
2024-02-02T15:36:43.092Z,99513.60
2024-02-02T15:39:23.993Z,99511.40
2024-02-02T15:42:04.496Z,99504.00
2024-02-02T15:44:37.953Z,99503.00
2024-02-02T15:47:12.673Z,99502.40
2024-02-02T15:49:46.219Z,99504.40
2024-02-02T15:52:19.571Z,99498.20
2024-02-02T15:54:54.276Z,99491.00
2024-02-02T15:57:27.786Z,99484.60
2024-02-02T16:00:01.474Z,99479.80
2024-02-02T16:02:35.387Z,99479.80
2024-02-02T16:05:10.569Z,99484.40
2024-02-02T16:07:44.173Z,99485.80
2024-02-02T16:10:20.027Z,99483.40
2024-02-02T16:12:53.348Z,99484.60
2024-02-02T16:15:26.894Z,99485.20
2024-02-02T16:18:00.409Z,99481.40
2024-02-02T16:20:36.472Z,99490.80
2024-02-02T16:23:09.976Z,99479.80
2024-02-02T16:25:43.397Z,99473.80
2024-02-02T16:28:16.793Z,99464.40
2024-02-02T16:30:50.254Z,99464.40
2024-02-02T16:33:24.142Z,99471.80
2024-02-02T16:35:57.779Z,99464.80
2024-02-02T16:38:35.458Z,99459.40
2024-02-02T16:41:09.173Z,99454.40
2024-02-02T16:43:43.589Z,99443.60
2024-02-02T16:46:17.431Z,99436.80
2024-02-02T16:48:51.378Z,99438.80
2024-02-02T16:51:26.080Z,99427.40
2024-02-02T16:54:00.193Z,99426.80
2024-02-02T16:56:34.912Z,99420.20
2024-02-02T16:59:10.468Z,99429.40
2024-02-02T17:01:45.239Z,99429.00
2024-02-02T17:04:19.636Z,99420.20
2024-02-02T17:06:54.588Z,99413.80
2024-02-02T17:09:29.188Z,99413.60
2024-02-02T17:12:03.874Z,99400.20
2024-02-02T17:14:40.407Z,99397.00
2024-02-02T17:17:15.077Z,99395.20
2024-02-02T17:19:49.378Z,99391.20
2024-02-02T17:22:24.118Z,99393.80
2024-02-02T17:24:58.680Z,99383.00
2024-02-02T17:27:33.599Z,99378.80
2024-02-02T17:30:09.864Z,99380.00
2024-02-02T17:32:44.671Z,99385.40
2024-02-02T17:35:19.589Z,99377.60
2024-02-02T17:37:54.023Z,99370.80
2024-02-02T17:40:28.933Z,99356.60
2024-02-02T17:43:08.737Z,99353.00
2024-02-02T17:45:43.619Z,99339.80
2024-02-02T17:48:18.414Z,99332.80
2024-02-02T17:50:53.252Z,99326.00
2024-02-02T17:53:27.924Z,99328.80
2024-02-02T17:56:04.428Z,99330.20
2024-02-02T17:58:39.480Z,99328.00
2024-02-02T18:01:18.564Z,99323.20
2024-02-02T18:03:53.618Z,99309.00
2024-02-02T18:06:28.550Z,99304.60
2024-02-02T18:09:03.064Z,99301.60
2024-02-02T18:11:38.661Z,99296.40
2024-02-02T18:14:13.195Z,99294.00
2024-02-02T18:16:46.989Z,99289.20
2024-02-02T18:19:20.352Z,99287.20
2024-02-02T18:21:53.741Z,99289.00
2024-02-02T18:24:27.066Z,99291.40
2024-02-02T18:27:01.016Z,99291.60
2024-02-02T18:29:34.541Z,99300.20
2024-02-02T18:32:09.055Z,99289.40
2024-02-02T18:34:42.845Z,99273.20
2024-02-02T18:37:16.288Z,99265.00
2024-02-02T18:39:51.548Z,99248.00
2024-02-02T18:42:24.812Z,99230.00
2024-02-02T18:44:58.010Z,99224.20
2024-02-02T18:47:31.629Z,99222.80
2024-02-02T18:50:05.572Z,99220.20
2024-02-02T18:52:38.914Z,99216.20
2024-02-02T18:55:13.515Z,99211.40
2024-02-02T18:57:47.122Z,99213.80
2024-02-02T19:00:22.215Z,99212.20
2024-02-02T19:02:55.723Z,99201.80
2024-02-02T19:05:29.129Z,99194.80
2024-02-02T19:08:02.521Z,99199.00
2024-02-02T19:10:35.769Z,99192.20
2024-02-02T19:13:09.339Z,99189.00
2024-02-02T19:15:42.818Z,99194.80
2024-02-02T19:18:16.346Z,99187.20
2024-02-02T19:20:49.744Z,99176.80
2024-02-02T19:23:23.122Z,99170.80
2024-02-02T19:25:56.732Z,99165.60
2024-02-02T19:28:30.076Z,99158.00
2024-02-02T19:31:03.388Z,99153.00
2024-02-02T19:33:36.992Z,99150.40
2024-02-02T19:36:18.989Z,99149.80
2024-02-02T19:38:52.620Z,99152.40
2024-02-02T19:41:27.774Z,99156.80
2024-02-02T19:44:01.892Z,99148.00
2024-02-02T19:46:36.746Z,99158.80
2024-02-02T19:49:11.718Z,99160.80
2024-02-02T19:51:45.634Z,99151.20
2024-02-02T19:54:19.057Z,99155.60
2024-02-02T19:56:52.381Z,99155.80
2024-02-02T19:59:25.781Z,99153.00
2024-02-02T20:02:02.120Z,99143.40
2024-02-02T20:04:35.615Z,99147.00
2024-02-02T20:07:11.629Z,99140.00
2024-02-02T20:09:45.144Z,99146.20
2024-02-02T20:12:18.616Z,99148.60
2024-02-02T20:14:51.988Z,99147.00
2024-02-02T20:17:26.486Z,99147.40
2024-02-02T20:20:00.511Z,99145.60
2024-02-02T20:22:34.094Z,99137.60
2024-02-02T20:25:09.132Z,99148.40
2024-02-02T20:27:42.484Z,99143.80
2024-02-02T20:30:17.821Z,99155.60
2024-02-02T20:32:51.213Z,99158.80
2024-02-02T20:35:24.664Z,99161.60
2024-02-02T20:37:58.669Z,99162.80
2024-02-02T20:40:32.097Z,99161.00
2024-02-02T20:43:05.611Z,99159.40
2024-02-02T20:45:39.281Z,99147.40
2024-02-02T20:48:12.858Z,99149.60
2024-02-02T20:50:46.331Z,99146.40
2024-02-02T20:53:19.819Z,99135.80
2024-02-02T20:55:53.213Z,99139.00
2024-02-02T20:58:27.257Z,99136.00
2024-02-02T21:01:01.889Z,99125.80
2024-02-02T21:03:35.843Z,99130.60
2024-02-02T21:06:10.105Z,99127.00
2024-02-02T21:08:46.877Z,99118.00
2024-02-02T21:11:20.655Z,99117.80
2024-02-02T21:13:53.922Z,99124.80
2024-02-02T21:16:27.211Z,99120.40
2024-02-02T21:19:04.892Z,99114.80
2024-02-02T21:21:38.933Z,99104.00
2024-02-02T21:24:12.559Z,99104.00
2024-02-02T21:26:46.878Z,99099.00
2024-02-02T21:29:20.176Z,99089.40
2024-02-02T21:31:53.537Z,99086.80
2024-02-02T21:34:27.013Z,99084.00
2024-02-02T21:37:00.603Z,99084.00
2024-02-02T21:39:34.132Z,99074.80
2024-02-02T21:42:08.120Z,99088.60
2024-02-02T21:44:41.799Z,99094.40
2024-02-02T21:47:15.046Z,99089.20
2024-02-02T21:49:48.372Z,99094.00
2024-02-02T21:52:21.837Z,99087.40
2024-02-02T21:54:55.276Z,99089.00
2024-02-02T21:57:28.587Z,99077.20
2024-02-02T22:00:03.488Z,99080.40
2024-02-02T22:02:37.027Z,99082.40
2024-02-02T22:05:10.845Z,99080.20
2024-02-02T22:07:44.357Z,99077.60
2024-02-02T22:10:18.068Z,99073.00
2024-02-02T22:12:51.414Z,99067.60
2024-02-02T22:15:25.189Z,99073.80
2024-02-02T22:17:58.557Z,99074.20
2024-02-02T22:20:31.946Z,99069.80
2024-02-02T22:23:05.893Z,99067.80
2024-02-02T22:25:39.238Z,99061.40
2024-02-02T22:28:12.724Z,99064.60
2024-02-02T22:30:46.559Z,99066.20
2024-02-02T22:33:19.993Z,99070.80
2024-02-02T22:35:53.436Z,99070.20
2024-02-02T22:38:26.985Z,99064.60
2024-02-02T22:41:07.407Z,99070.40
2024-02-02T22:43:47.638Z,99056.60
2024-02-02T22:46:21.673Z,99059.60
2024-02-02T22:48:55.347Z,99054.40
2024-02-02T22:51:29.304Z,99064.80
2024-02-02T22:54:02.724Z,99066.80
2024-02-02T22:56:36.094Z,99069.40
2024-02-02T22:59:09.312Z,99069.00
2024-02-02T23:01:42.590Z,99069.40
2024-02-02T23:04:16.017Z,99062.20
2024-02-02T23:06:49.634Z,99057.00
2024-02-02T23:09:23.438Z,99056.40
2024-02-02T23:11:56.782Z,99057.00
2024-02-02T23:14:30.142Z,99050.40
2024-02-02T23:17:03.483Z,99038.80
2024-02-02T23:19:41.073Z,99038.80
2024-02-02T23:22:16.508Z,99032.40
2024-02-02T23:24:50.099Z,99028.60
2024-02-02T23:27:23.424Z,99028.80
2024-02-02T23:29:56.642Z,99024.40
2024-02-02T23:32:29.976Z,99022.00
2024-02-02T23:35:03.882Z,99020.60
2024-02-02T23:37:37.430Z,99018.20
2024-02-02T23:40:13.631Z,99015.00
2024-02-02T23:42:46.959Z,99007.20
2024-02-02T23:45:20.450Z,99002.40
2024-02-02T23:47:53.746Z,99004.80
2024-02-02T23:50:27.094Z,98999.20
2024-02-02T23:53:00.481Z,99002.00
2024-02-02T23:55:33.757Z,98998.00
2024-02-02T23:58:07.663Z,98994.80
